Time;durP1;ratioP1;P1;durP2;ratioP2;P2;SDS_P1;SDS_P2;PMS_P1;PMS_P2;Temp;Humidity;BMP_temperature;BMP_pressure;BME280_temperature;BME280_humidity;BME280_pressure;Samples;Min_cycle;Max_cycle;Signal;HPM_P1;HPM_P2
2021/03/20 00:01:19;;;;;;;1999.90;999.90;;;2.80;99.90;;;;;;4986122;28;20199;-81
2021/03/20 00:03:48;;;;;;;1999.90;999.90;;;2.70;99.90;;;;;;4962147;28;20565;-79
2021/03/20 00:06:18;;;;;;;1999.90;999.90;;;2.70;99.90;;;;;;4978999;28;20164;-79
2021/03/20 00:08:45;;;;;;;1999.90;999.90;;;2.70;99.90;;;;;;4962552;28;20171;-83
2021/03/20 00:11:13;;;;;;;1999.90;999.90;;;2.70;99.90;;;;;;4963858;28;20160;-79
2021/03/20 00:13:41;;;;;;;1999.90;999.90;;;2.80;99.90;;;;;;4961274;28;20199;-79
2021/03/20 00:16:07;;;;;;;1999.90;999.90;;;2.80;99.90;;;;;;4979113;28;20170;-79
2021/03/20 00:18:33;;;;;;;1999.90;999.90;;;2.70;99.90;;;;;;4979464;28;20246;-78
2021/03/20 00:21:02;;;;;;;1999.90;999.90;;;2.80;99.90;;;;;;4978742;28;20167;-79
2021/03/20 00:23:33;;;;;;;1999.90;999.90;;;2.80;99.90;;;;;;4979115;28;20311;-79
2021/03/20 00:26:02;;;;;;;1999.90;999.90;;;2.80;99.90;;;;;;4978897;28;20171;-79
2021/03/20 00:28:32;;;;;;;1999.90;999.90;;;2.70;99.90;;;;;;4978638;28;20237;-79
2021/03/20 00:31:10;;;;;;;1999.90;999.90;;;2.70;99.90;;;;;;4979204;28;20159;-79
2021/03/20 00:33:38;;;;;;;1999.90;999.90;;;2.80;99.90;;;;;;4979057;28;20183;-79
2021/03/20 00:36:06;;;;;;;1999.90;999.90;;;2.80;99.90;;;;;;4978292;28;20526;-80
2021/03/20 00:38:34;;;;;;;1999.90;999.90;;;2.80;99.90;;;;;;4978617;28;20256;-82
2021/03/20 00:41:01;;;;;;;1999.90;999.90;;;2.80;99.90;;;;;;4960606;28;20171;-79
2021/03/20 00:43:27;;;;;;;1999.90;999.90;;;2.80;99.90;;;;;;4978346;28;20733;-79
2021/03/20 00:45:53;;;;;;;1999.90;999.90;;;2.80;99.90;;;;;;4978126;28;20171;-79
2021/03/20 00:48:23;;;;;;;1999.90;999.90;;;2.80;99.90;;;;;;4977706;28;20175;-78
2021/03/20 00:50:50;;;;;;;1999.90;999.90;;;2.70;99.90;;;;;;4960671;28;20159;-79
2021/03/20 00:53:17;;;;;;;1999.90;999.90;;;2.80;99.90;;;;;;4977757;28;20214;-79
2021/03/20 00:55:42;;;;;;;1999.90;999.90;;;2.90;99.90;;;;;;4977577;28;20170;-79
2021/03/20 00:58:22;;;;;;;1999.90;999.90;;;2.80;99.90;;;;;;4978174;28;20194;-80
2021/03/20 01:00:49;;;;;;;1999.90;999.90;;;2.90;99.90;;;;;;4977600;28;20170;-79
2021/03/20 01:03:15;;;;;;;1999.90;999.90;;;2.90;99.90;;;;;;4960677;28;20745;-79
2021/03/20 01:05:46;;;;;;;1999.90;999.90;;;3.00;99.90;;;;;;4977639;28;20628;-79
2021/03/20 01:08:12;;;;;;;1999.90;999.90;;;3.00;99.90;;;;;;4977863;28;20464;-79
2021/03/20 01:10:39;;;;;;;1999.90;999.90;;;3.00;99.90;;;;;;4977550;28;20191;-79
2021/03/20 01:13:05;;;;;;;1999.90;999.90;;;2.90;99.90;;;;;;4977949;28;20678;-79
2021/03/20 01:15:31;;;;;;;1999.90;999.90;;;2.90;99.90;;;;;;4960340;28;20202;-80
2021/03/20 01:17:57;;;;;;;1999.90;999.90;;;2.90;99.90;;;;;;4977474;28;20191;-80
2021/03/20 01:20:23;;;;;;;1999.90;999.90;;;2.80;99.90;;;;;;4977688;28;20163;-79
2021/03/20 01:22:49;;;;;;;1999.90;999.90;;;2.60;99.90;;;;;;4960819;28;20186;-79
2021/03/20 01:25:15;;;;;;;1999.90;999.90;;;2.50;99.90;;;;;;4977612;28;20654;-79
2021/03/20 01:27:40;;;;;;;1999.90;999.90;;;2.30;99.90;;;;;;4959308;28;20186;-79
2021/03/20 01:30:15;;;;;;;1999.90;999.90;;;2.20;99.90;;;;;;4977423;28;20410;-79
2021/03/20 01:32:41;;;;;;;1999.90;999.90;;;2.30;99.90;;;;;;4977539;28;20170;-79
2021/03/20 01:35:09;;;;;;;1999.90;999.90;;;2.30;99.90;;;;;;4979790;28;20194;-79
2021/03/20 01:37:35;;;;;;;1999.90;999.90;;;2.40;99.90;;;;;;4947926;28;20203;-79
2021/03/20 01:40:01;;;;;;;1999.90;999.90;;;2.30;99.90;;;;;;4981072;28;20172;-79
2021/03/20 01:42:26;;;;;;;1999.90;999.90;;;2.20;99.90;;;;;;4963599;28;20628;-79
2021/03/20 01:45:16;;;;;;;1999.90;999.90;;;2.20;99.90;;;;;;4981074;28;20270;-79
2021/03/20 01:47:54;;;;;;;1999.90;999.90;;;2.10;99.90;;;;;;4979352;28;20152;-79
2021/03/20 01:50:50;;;;;;;1999.90;999.90;;;2.00;99.90;;;;;;4979421;28;20190;-79
2021/03/20 01:53:37;;;;;;;1999.90;999.90;;;1.90;99.90;;;;;;4978489;28;20290;-80
2021/03/20 01:56:06;;;;;;;1999.90;999.90;;;1.80;99.90;;;;;;4979262;28;20167;-80
2021/03/20 01:58:39;;;;;;;1999.90;999.90;;;1.70;99.90;;;;;;4979053;28;20179;-80
2021/03/20 02:01:13;;;;;;;1999.90;999.90;;;1.60;99.90;;;;;;4978733;28;20266;-80
2021/03/20 02:03:39;;;;;;;1999.90;999.90;;;1.50;99.90;;;;;;4961474;28;20770;-79
2021/03/20 02:06:07;;;;;;;1999.90;999.90;;;1.60;99.90;;;;;;4978873;28;20199;-80
2021/03/20 02:08:37;;;;;;;1999.90;999.90;;;1.50;99.90;;;;;;4979116;28;20570;-79
2021/03/20 02:11:28;;;;;;;1999.90;999.90;;;1.50;99.90;;;;;;4979175;28;20607;-79
2021/03/20 02:14:06;;;;;;;1999.90;999.90;;;1.50;99.90;;;;;;4961989;28;20207;-79
2021/03/20 02:16:52;;;;;;;1999.90;999.90;;;1.50;99.90;;;;;;4963471;28;20282;-80
2021/03/20 02:19:52;;;;;;;1999.90;999.90;;;1.40;99.90;;;;;;4962792;28;20287;-79
2021/03/20 02:22:32;;;;;;;1999.90;999.90;;;1.30;99.90;;;;;;4941021;28;20180;-80
2021/03/20 02:25:01;;;;;;;1999.90;999.90;;;1.30;99.90;;;;;;4979995;28;20183;-80
2021/03/20 02:27:38;;;;;;;1999.90;999.90;;;1.20;99.90;;;;;;4980352;28;20167;-80
2021/03/20 02:30:15;;;;;;;1999.90;999.90;;;1.20;99.90;;;;;;4963235;28;20168;-80
2021/03/20 02:33:02;;;;;;;1999.90;999.90;;;1.20;99.90;;;;;;4980095;28;20201;-80
2021/03/20 02:35:42;;;;;;;1999.90;999.90;;;1.20;99.90;;;;;;4979617;28;20219;-80
2021/03/20 02:38:17;;;;;;;1999.90;999.90;;;1.30;99.90;;;;;;4979609;28;20187;-80
2021/03/20 02:40:59;;;;;;;1999.90;999.90;;;1.50;99.90;;;;;;4979794;28;20166;-80
2021/03/20 02:43:40;;;;;;;1999.90;999.90;;;1.50;99.90;;;;;;4961771;28;20195;-80
2021/03/20 02:46:27;;;;;;;1999.90;999.90;;;1.60;99.90;;;;;;4961501;28;20159;-80
2021/03/20 02:48:55;;;;;;;1999.90;999.90;;;1.60;99.90;;;;;;4961690;28;20291;-80
2021/03/20 02:51:43;;;;;;;1999.90;999.90;;;1.70;99.90;;;;;;4962397;28;20263;-80
2021/03/20 02:54:21;;;;;;;1999.90;999.90;;;1.60;99.90;;;;;;5046094;23;20227;-79
2021/03/20 02:56:53;;;;;;;1999.90;999.90;;;1.60;99.90;;;;;;4962333;28;20199;-80
2021/03/20 02:59:23;;;;;;;1999.90;999.90;;;1.50;99.90;;;;;;4979329;28;20207;-79
2021/03/20 03:01:51;;;;;;;1999.90;999.90;;;1.40;99.90;;;;;;4979805;28;20231;-79
2021/03/20 03:04:21;;;;;;;1999.90;999.90;;;1.30;99.90;;;;;;4979972;28;20194;-79
2021/03/20 03:07:20;;;;;;;1999.90;999.90;;;1.20;99.90;;;;;;4979469;28;20175;-79
2021/03/20 03:09:53;;;;;;;1999.90;999.90;;;1.20;99.90;;;;;;4979712;28;20175;-78
2021/03/20 03:12:37;;;;;;;1999.90;999.90;;;1.20;99.90;;;;;;4980333;28;20183;-79
2021/03/20 03:15:11;;;;;;;1999.90;999.90;;;1.10;99.90;;;;;;4961456;28;20187;-79
2021/03/20 03:17:41;;;;;;;1999.90;999.90;;;1.10;99.90;;;;;;4979024;28;20187;-79
2021/03/20 03:20:09;;;;;;;1999.90;999.90;;;1.00;99.90;;;;;;4961728;28;20535;-79
2021/03/20 03:22:55;;;;;;;1999.90;999.90;;;0.90;99.90;;;;;;4978760;28;20527;-79
2021/03/20 03:25:24;;;;;;;1999.90;999.90;;;0.80;99.90;;;;;;4978642;28;20154;-79
2021/03/20 03:27:53;;;;;;;1999.90;999.90;;;0.80;99.90;;;;;;4978840;28;20539;-79
2021/03/20 03:30:21;;;;;;;1999.90;999.90;;;0.80;99.90;;;;;;4978982;28;20164;-80
2021/03/20 03:33:02;;;;;;;1999.90;999.90;;;0.70;99.90;;;;;;4961264;28;20186;-79
2021/03/20 03:35:35;;;;;;;1999.90;999.90;;;0.70;99.90;;;;;;4979062;28;20581;-79
2021/03/20 03:38:22;;;;;;;1999.90;999.90;;;0.70;99.90;;;;;;4961509;28;20191;-79
2021/03/20 03:41:12;;;;;;;1999.90;999.90;;;0.70;99.90;;;;;;4962185;28;20167;-79
2021/03/20 03:43:38;;;;;;;1999.90;999.90;;;0.70;99.90;;;;;;4978886;28;20183;-79
2021/03/20 03:46:05;;;;;;;1999.90;999.90;;;0.70;99.90;;;;;;4978944;28;20170;-79
2021/03/20 03:48:31;;;;;;;1999.90;999.90;;;0.60;99.90;;;;;;4961230;28;20910;-79
2021/03/20 03:51:17;;;;;;;1999.90;999.90;;;0.60;99.90;;;;;;4978541;28;20254;-80
2021/03/20 03:53:43;;;;;;;1999.90;999.90;;;0.60;99.90;;;;;;4978517;28;20265;-79
2021/03/20 03:56:51;;;;;;;1999.90;999.90;;;0.70;99.90;;;;;;4978612;28;20151;-80
2021/03/20 03:59:27;;;;;;;1999.90;999.90;;;0.60;99.90;;;;;;4946498;28;20430;-80
2021/03/20 04:02:11;;;;;;;1999.90;999.90;;;0.60;99.90;;;;;;4978737;28;20155;-79
2021/03/20 04:04:52;;;;;;;1999.90;999.90;;;0.70;99.90;;;;;;4961082;28;20191;-80
2021/03/20 04:07:49;;;;;;;1999.90;999.90;;;0.70;99.90;;;;;;4960747;28;20183;-80
2021/03/20 04:10:18;;;;;;;1999.90;999.90;;;0.70;99.90;;;;;;4958997;28;20183;-80
2021/03/20 04:12:46;;;;;;;1999.90;999.90;;;0.80;99.90;;;;;;4978551;28;20168;-80
2021/03/20 04:15:28;;;;;;;1999.90;999.90;;;0.80;99.90;;;;;;4978182;28;20175;-80
2021/03/20 04:18:12;;;;;;;1999.90;999.90;;;0.80;99.90;;;;;;4980592;28;20524;-80
2021/03/20 04:21:08;;;;;;;1999.90;999.90;;;0.90;99.90;;;;;;4962746;28;20167;-79
2021/03/20 04:24:06;;;;;;;1999.90;999.90;;;1.00;99.90;;;;;;4961366;28;20274;-79
2021/03/20 04:26:55;;;;;;;1999.90;999.90;;;1.00;99.90;;;;;;4978597;28;20503;-80
2021/03/20 04:29:41;;;;;;;1999.90;999.90;;;1.10;99.90;;;;;;4965620;28;20187;-79
2021/03/20 04:32:17;;;;;;;1999.90;999.90;;;1.10;99.90;;;;;;4961246;28;20171;-79
2021/03/20 04:34:56;;;;;;;1999.90;999.90;;;1.20;99.90;;;;;;4978245;28;20190;-79
2021/03/20 04:37:26;;;;;;;1999.90;999.90;;;1.20;99.90;;;;;;4960666;28;20226;-79
2021/03/20 04:39:54;;;;;;;1999.90;999.90;;;1.40;99.90;;;;;;4978611;28;20234;-79
2021/03/20 04:42:28;;;;;;;1999.90;999.90;;;1.30;99.90;;;;;;4960706;28;20650;-79
2021/03/20 04:44:55;;;;;;;1999.90;999.90;;;1.30;99.90;;;;;;4960471;28;20191;-79
2021/03/20 04:47:26;;;;;;;1999.90;999.90;;;1.30;99.90;;;;;;4978874;28;20530;-79
2021/03/20 04:49:57;;;;;;;1999.90;999.90;;;1.30;99.90;;;;;;4978182;28;20174;-79
2021/03/20 04:52:30;;;;;;;1999.90;999.90;;;1.20;99.90;;;;;;4978396;28;20252;-79
2021/03/20 04:55:03;;;;;;;1999.90;999.90;;;1.10;99.90;;;;;;4960642;28;20207;-79
2021/03/20 04:57:35;;;;;;;1999.90;999.90;;;1.00;99.90;;;;;;4978081;28;20195;-79
2021/03/20 05:00:07;;;;;;;1999.90;999.90;;;0.90;99.90;;;;;;4978775;28;20155;-79
2021/03/20 05:02:44;;;;;;;1999.90;999.90;;;0.90;99.90;;;;;;4978651;28;20151;-79
2021/03/20 05:05:23;;;;;;;1999.90;999.90;;;0.80;99.90;;;;;;4960525;28;20202;-80
2021/03/20 05:07:49;;;;;;;1999.90;999.90;;;0.70;99.90;;;;;;4978512;28;20156;-79
2021/03/20 05:10:38;;;;;;;1999.90;999.90;;;0.70;99.90;;;;;;4980839;28;20167;-79
2021/03/20 05:13:11;;;;;;;1999.90;999.90;;;0.70;99.90;;;;;;4969244;28;20634;-80
2021/03/20 05:15:37;;;;;;;1999.90;999.90;;;0.60;99.90;;;;;;4982059;28;20574;-79
2021/03/20 05:18:03;;;;;;;1999.90;999.90;;;0.50;99.90;;;;;;4982005;28;20187;-80
2021/03/20 05:20:28;;;;;;;1999.90;999.90;;;0.50;99.90;;;;;;4981947;28;20163;-80
2021/03/20 05:22:54;;;;;;;1999.90;999.90;;;0.50;99.90;;;;;;4982307;28;20163;-80
2021/03/20 05:25:24;;;;;;;1999.90;999.90;;;0.50;99.90;;;;;;4964478;28;20221;-79
2021/03/20 05:27:50;;;;;;;1999.90;999.90;;;0.40;99.90;;;;;;4981918;28;20167;-79
2021/03/20 05:30:17;;;;;;;1999.90;999.90;;;0.50;99.90;;;;;;4981519;28;20171;-80
2021/03/20 05:32:43;;;;;;;1999.90;999.90;;;0.50;99.90;;;;;;4981412;28;20178;-77
2021/03/20 05:35:20;;;;;;;1999.90;999.90;;;0.60;99.90;;;;;;4981965;28;20554;-79
2021/03/20 05:37:45;;;;;;;1999.90;999.90;;;0.50;99.90;;;;;;4981484;28;20270;-79
2021/03/20 05:40:21;;;;;;;1999.90;999.90;;;0.60;99.90;;;;;;4964730;28;20206;-78
2021/03/20 05:43:14;;;;;;;1999.90;999.90;;;0.80;99.90;;;;;;4964728;28;20163;-78
2021/03/20 05:45:56;;;;;;;1999.90;999.90;;;1.00;99.90;;;;;;4981912;28;20155;-80
2021/03/20 05:48:33;;;;;;;1999.90;999.90;;;1.00;99.90;;;;;;4982074;28;20162;-80
2021/03/20 05:51:06;;;;;;;1999.90;999.90;;;1.00;99.90;;;;;;4981748;28;20156;-80
2021/03/20 05:53:50;;;;;;;1999.90;999.90;;;1.00;99.90;;;;;;4963254;28;20217;-79
2021/03/20 05:56:32;;;;;;;1999.90;999.90;;;1.00;99.90;;;;;;4963860;28;20174;-80
2021/03/20 05:59:05;;;;;;;1999.90;999.90;;;0.90;99.90;;;;;;4981352;28;20156;-79
2021/03/20 06:01:39;;;;;;;1999.90;999.90;;;1.00;99.90;;;;;;4981938;28;20242;-79
2021/03/20 06:04:27;;;;;;;1999.90;999.90;;;1.10;99.90;;;;;;4981545;28;20232;-80
2021/03/20 06:06:58;;;;;;;1999.90;999.90;;;1.10;99.90;;;;;;4981431;28;20170;-80
2021/03/20 06:10:10;;;;;;;1999.90;999.90;;;1.10;99.90;;;;;;4981304;28;20543;-80
2021/03/20 06:12:45;;;;;;;1999.90;999.90;;;1.10;99.90;;;;;;4981094;28;20157;-80
2021/03/20 06:15:13;;;;;;;1999.90;999.90;;;1.20;99.90;;;;;;4981630;28;20193;-80
2021/03/20 06:18:20;;;;;;;1999.90;999.90;;;1.30;99.90;;;;;;4964126;28;20222;-79
2021/03/20 06:21:08;;;;;;;1999.90;999.90;;;1.40;99.90;;;;;;4981369;28;20151;-80
2021/03/20 06:23:52;;;;;;;1999.90;999.90;;;1.40;99.90;;;;;;4964722;28;20191;-80
2021/03/20 06:26:36;;;;;;;1999.90;999.90;;;1.40;99.90;;;;;;4964051;28;20170;-80
2021/03/20 06:29:13;;;;;;;1999.90;999.90;;;1.40;99.90;;;;;;4981160;28;20202;-80
2021/03/20 06:31:44;;;;;;;1999.90;999.90;;;1.40;99.90;;;;;;4981613;28;20151;-80
2021/03/20 06:34:18;;;;;;;1999.90;999.90;;;1.40;99.90;;;;;;4961293;28;20203;-80
2021/03/20 06:36:50;;;;;;;1999.90;999.90;;;1.50;99.90;;;;;;4964016;28;20197;-80
2021/03/20 06:39:27;;;;;;;1999.90;999.90;;;1.50;99.90;;;;;;4981801;28;20148;-80
2021/03/20 06:42:10;;;;;;;1999.90;999.90;;;1.60;99.90;;;;;;4964033;28;20622;-80
2021/03/20 06:44:45;;;;;;;1999.90;999.90;;;1.60;99.90;;;;;;4981031;28;20246;-80
2021/03/20 06:47:21;;;;;;;1999.90;999.90;;;1.60;99.90;;;;;;4981190;28;20151;-80
2021/03/20 06:50:09;;;;;;;1999.90;999.90;;;1.70;99.90;;;;;;4981133;28;20187;-80
2021/03/20 06:52:40;;;;;;;1999.90;999.90;;;1.80;99.90;;;;;;4981589;28;20185;-80
2021/03/20 06:55:25;;;;;;;1999.90;999.90;;;1.80;99.90;;;;;;4981129;28;20203;-80
2021/03/20 06:57:51;;;;;;;1999.90;999.90;;;1.80;99.90;;;;;;4963892;28;20198;-80
2021/03/20 07:00:26;;;;;;;1999.90;999.90;;;1.90;99.90;;;;;;4981790;28;20171;-80
2021/03/20 07:03:13;;;;;;;1999.90;999.90;;;1.90;99.90;;;;;;4963736;28;20989;-80
2021/03/20 07:06:11;;;;;;;1999.90;999.90;;;2.10;99.90;;;;;;4963328;28;20170;-80
2021/03/20 07:08:58;;;;;;;1999.90;999.90;;;2.10;99.90;;;;;;4963711;28;20168;-80
2021/03/20 07:11:31;;;;;;;1999.90;999.90;;;2.10;99.90;;;;;;4965039;28;20689;-80
2021/03/20 07:14:00;;;;;;;1999.90;999.90;;;2.20;99.90;;;;;;4963750;28;20282;-80
2021/03/20 07:16:29;;;;;;;1999.90;999.90;;;2.30;99.90;;;;;;4980374;28;20171;-80
2021/03/20 07:18:59;;;;;;;1999.90;999.90;;;2.30;99.90;;;;;;4980539;28;20163;-80
2021/03/20 07:21:35;;;;;;;1999.90;999.90;;;2.30;99.90;;;;;;4980861;28;20235;-80
2021/03/20 07:24:31;;;;;;;1999.90;999.90;;;2.30;99.90;;;;;;4979769;28;20183;-79
2021/03/20 07:27:14;;;;;;;1999.90;999.90;;;2.40;99.90;;;;;;4962639;28;20255;-78
2021/03/20 07:29:44;;;;;;;1999.90;999.90;;;2.30;99.90;;;;;;4979597;28;20223;-80
2021/03/20 07:32:17;;;;;;;1999.90;999.90;;;2.30;99.90;;;;;;4979663;28;20643;-79
2021/03/20 07:34:44;;;;;;;1999.90;999.90;;;2.20;99.90;;;;;;4962135;28;20214;-80
2021/03/20 07:37:25;;;;;;;1999.90;999.90;;;2.30;99.90;;;;;;4979975;28;20722;-79
2021/03/20 07:39:57;;;;;;;1999.90;999.90;;;2.30;99.90;;;;;;4962121;28;20647;-79
2021/03/20 07:42:34;;;;;;;1999.90;999.90;;;2.30;99.90;;;;;;4962431;28;20167;-80
2021/03/20 07:45:02;;;;;;;1999.90;999.90;;;2.30;99.90;;;;;;4980252;28;20251;-79
2021/03/20 07:47:39;;;;;;;1999.90;999.90;;;2.40;99.90;;;;;;4979843;28;20535;-79
2021/03/20 07:50:17;;;;;;;1999.90;999.90;;;2.40;99.90;;;;;;4962105;28;20225;-78
2021/03/20 07:52:46;;;;;;;1999.90;999.90;;;2.50;99.90;;;;;;4978802;28;20170;-79
2021/03/20 07:55:22;;;;;;;1999.90;999.90;;;2.60;99.90;;;;;;4979257;28;20622;-78
2021/03/20 07:57:57;;;;;;;1999.90;999.90;;;2.70;99.90;;;;;;4979754;28;20179;-79
2021/03/20 08:00:28;;;;;;;1999.90;999.90;;;2.70;99.90;;;;;;4961318;28;20221;-79
2021/03/20 08:03:05;;;;;;;1999.90;999.90;;;2.80;99.90;;;;;;4978598;28;20160;-79
2021/03/20 08:05:38;;;;;;;1999.90;999.90;;;2.80;99.90;;;;;;4978992;28;20156;-80
2021/03/20 08:08:14;;;;;;;1999.90;999.90;;;2.80;99.90;;;;;;4978761;28;20604;-79
2021/03/20 08:10:44;;;;;;;1999.90;999.90;;;2.90;99.90;;;;;;4962557;28;20178;-79
2021/03/20 08:13:16;;;;;;;1999.90;999.90;;;3.00;99.90;;;;;;4979208;28;20186;-80
2021/03/20 08:15:56;;;;;;;1999.90;999.90;;;3.00;99.90;;;;;;4961025;28;20171;-80
2021/03/20 08:18:29;;;;;;;1999.90;999.90;;;3.00;99.90;;;;;;4978899;28;20179;-79
2021/03/20 08:21:10;;;;;;;1999.90;999.90;;;3.00;99.90;;;;;;4961818;28;20175;-79
2021/03/20 08:24:05;;;;;;;1999.90;999.90;;;3.00;99.90;;;;;;4978747;28;20186;-79
2021/03/20 08:26:46;;;;;;;1999.90;999.90;;;3.10;99.90;;;;;;4961394;28;20172;-80
2021/03/20 08:29:37;;;;;;;1999.90;999.90;;;3.10;99.90;;;;;;4978628;28;20534;-79
2021/03/20 08:32:23;;;;;;;1999.90;999.90;;;3.10;99.90;;;;;;4978843;28;20244;-79
2021/03/20 08:34:54;;;;;;;1999.90;999.90;;;3.10;99.90;;;;;;4977380;28;20577;-79
2021/03/20 08:37:57;;;;;;;1999.90;999.90;;;3.10;99.90;;;;;;4978347;28;20210;-80
2021/03/20 08:40:52;;;;;;;1999.90;999.90;;;3.20;99.90;;;;;;4979143;28;20290;-79
2021/03/20 08:43:46;;;;;;;1999.90;999.90;;;3.30;99.90;;;;;;4978683;28;20206;-80
2021/03/20 08:46:42;;;;;;;1999.90;999.90;;;3.30;99.90;;;;;;4978901;28;20151;-79
2021/03/20 08:49:12;;;;;;;1999.90;999.90;;;3.40;99.90;;;;;;4960839;28;20254;-79
2021/03/20 08:51:55;;;;;;;1999.90;999.90;;;3.40;99.90;;;;;;4980739;28;20158;-79
2021/03/20 08:55:20;;;;;;;1999.90;999.90;;;3.60;99.90;;;;;;5048502;23;20222;-80
2021/03/20 08:58:25;;;;;;;1999.90;999.90;;;3.60;99.90;;;;;;4976591;28;20198;-81
2021/03/20 09:01:15;;;;;;;1999.90;999.90;;;3.70;99.90;;;;;;4977908;28;20147;-81
2021/03/20 09:03:51;;;;;;;1999.90;999.90;;;3.60;99.90;;;;;;4961129;28;20202;-81
2021/03/20 09:06:30;;;;;;;1999.90;999.90;;;3.50;99.90;;;;;;4979713;28;20150;-80
2021/03/20 09:09:16;;;;;;;1999.90;999.90;;;3.60;99.90;;;;;;4961635;28;20174;-80
2021/03/20 09:11:50;;;;;;;1999.90;999.90;;;3.60;99.90;;;;;;4978877;28;20179;-81
2021/03/20 09:14:24;;;;;;;1999.90;999.90;;;3.70;99.90;;;;;;4961007;28;20195;-81
2021/03/20 09:16:52;;;;;;;1999.90;999.90;;;3.80;99.90;;;;;;4978355;28;20266;-81
2021/03/20 09:19:34;;;;;;;1999.90;999.90;;;3.70;99.90;;;;;;4978304;28;20156;-80
2021/03/20 09:22:08;;;;;;;1999.90;999.90;;;3.80;99.90;;;;;;4977879;28;20151;-81
2021/03/20 09:24:34;;;;;;;1999.90;999.90;;;4.00;99.90;;;;;;4978597;28;20242;-81
2021/03/20 09:27:04;;;;;;;1999.90;999.90;;;4.10;99.90;;;;;;4978380;28;20594;-81
2021/03/20 09:29:33;;;;;;;1999.90;999.90;;;3.90;95.40;;;;;;4978106;28;20523;-81
2021/03/20 09:32:11;;;;;;;1999.90;999.90;;;4.00;99.90;;;;;;4978207;28;20169;-81
2021/03/20 09:34:45;;;;;;;1999.90;999.90;;;4.10;97.40;;;;;;4978040;28;20187;-82
2021/03/20 09:37:48;;;;;;;1999.90;999.90;;;4.20;97.70;;;;;;4978136;28;20183;-81
2021/03/20 09:40:36;;;;;;;1999.90;999.90;;;4.30;94.60;;;;;;4974982;28;20183;-80
2021/03/20 09:43:29;;;;;;;1999.90;999.90;;;4.40;92.50;;;;;;4978316;28;20183;-80
2021/03/20 09:46:27;;;;;;;1999.90;999.90;;;4.50;88.10;;;;;;4978259;28;20173;-80
2021/03/20 09:48:54;;;;;;;1999.90;999.90;;;4.60;85.30;;;;;;4960303;28;20235;-80
2021/03/20 09:51:48;;;;;;;1999.90;999.90;;;4.50;79.00;;;;;;4978060;28;20250;-80
2021/03/20 09:54:25;;;;;;;1999.90;999.90;;;4.60;70.80;;;;;;4978297;28;20556;-81
2021/03/20 09:57:25;;;;;;;1999.90;999.90;;;4.80;85.70;;;;;;4981647;28;20191;-80
2021/03/20 09:59:51;;;;;;;1999.90;999.90;;;5.00;76.20;;;;;;4963824;28;20255;-80
2021/03/20 10:02:20;;;;;;;1999.90;999.90;;;5.10;64.10;;;;;;4965585;28;20195;-80
2021/03/20 10:04:51;;;;;;;1999.90;999.90;;;5.20;46.60;;;;;;4966920;28;20250;-80
2021/03/20 10:07:20;;;;;;;1999.90;999.90;;;5.30;52.50;;;;;;4984382;28;20168;-80
2021/03/20 10:10:11;;;;;;;1999.90;999.90;;;5.50;51.80;;;;;;4984389;28;20221;-80
2021/03/20 10:12:46;;;;;;;1999.90;999.90;;;5.60;55.70;;;;;;4980921;28;20566;-80
2021/03/20 10:15:32;;;;;;;1999.90;999.90;;;6.00;46.40;;;;;;4963922;28;20198;-80
2021/03/20 10:18:04;;;;;;;1999.90;999.90;;;6.10;28.40;;;;;;4962893;28;20251;-80
2021/03/20 10:20:45;;;;;;;1999.90;999.90;;;6.20;13.30;;;;;;4963411;28;20164;-80
2021/03/20 10:23:20;;;;;;;1999.90;999.90;;;6.30;13.90;;;;;;4962834;28;20198;-80
2021/03/20 10:26:10;;;;;;;1999.90;999.90;;;6.50;10.50;;;;;;4981217;28;20159;-81
2021/03/20 10:29:04;;;;;;;1999.90;999.90;;;6.70;7.00;;;;;;4980760;28;20162;-81
2021/03/20 10:31:50;;;;;;;1999.90;999.90;;;6.70;2.50;;;;;;4980850;28;20187;-80
2021/03/20 10:34:25;;;;;;;1999.90;999.90;;;6.90;2.10;;;;;;4963027;28;20261;-81
2021/03/20 10:37:09;;;;;;;1999.90;999.90;;;7.30;6.10;;;;;;4962866;28;20198;-80
2021/03/20 10:39:37;;;;;;;1999.90;999.90;;;7.50;4.60;;;;;;4962297;28;20233;-80
2021/03/20 10:42:33;;;;;;;1999.90;999.90;;;7.50;1.00;;;;;;4962875;28;20168;-80
2021/03/20 10:45:30;;;;;;;1999.90;999.90;;;7.50;1.70;;;;;;4930191;28;20195;-81
2021/03/20 10:48:10;;;;;;;1999.90;999.90;;;7.60;2.10;;;;;;4979232;28;20183;-80
2021/03/20 10:50:40;;;;;;;1999.90;999.90;;;7.60;1.00;;;;;;4980002;28;20163;-80
2021/03/20 10:53:27;;;;;;;1999.90;999.90;;;7.70;1.10;;;;;;4962279;28;20187;-80
2021/03/20 10:56:23;;;;;;;1999.90;999.90;;;7.80;1.00;;;;;;4962865;28;20187;-80
2021/03/20 10:58:49;;;;;;;1999.90;999.90;;;7.80;1.00;;;;;;4962963;28;20207;-80
2021/03/20 11:01:27;;;;;;;1999.90;999.90;;;7.70;1.00;;;;;;4980195;28;20168;-80
2021/03/20 11:03:53;;;;;;;1999.90;999.90;;;7.60;1.00;;;;;;4963217;28;20195;-80
2021/03/20 11:06:22;;;;;;;1999.90;999.90;;;7.60;1.00;;;;;;4979419;28;20530;-80
2021/03/20 11:09:04;;;;;;;1999.90;999.90;;;7.80;1.00;;;;;;4981155;28;20194;-80
2021/03/20 11:11:32;;;;;;;1999.90;999.90;;;7.70;1.00;;;;;;4980691;28;20155;-80
2021/03/20 11:14:06;;;;;;;1999.90;999.90;;;7.80;1.00;;;;;;4979887;28;20550;-81
2021/03/20 11:16:33;;;;;;;1999.90;999.90;;;7.80;1.00;;;;;;4980319;28;20155;-80
2021/03/20 11:19:27;;;;;;;1999.90;999.90;;;8.00;1.00;;;;;;4979121;28;20210;-80
2021/03/20 11:22:00;;;;;;;1999.90;999.90;;;8.10;1.00;;;;;;4980679;28;20147;-80
2021/03/20 11:24:37;;;;;;;1999.90;999.90;;;8.10;1.00;;;;;;4979031;28;20195;-80
2021/03/20 11:27:20;;;;;;;1999.90;999.90;;;8.10;1.00;;;;;;4961891;28;20650;-80
2021/03/20 11:29:49;;;;;;;1999.90;999.90;;;8.10;1.00;;;;;;4979343;28;20164;-80
2021/03/20 11:32:44;;;;;;;1999.90;999.90;;;8.00;1.00;;;;;;4961846;28;20172;-80
2021/03/20 11:35:29;;;;;;;1999.90;999.90;;;8.10;1.00;;;;;;4968725;28;20207;-80
2021/03/20 11:38:06;;;;;;;1999.90;999.90;;;8.00;1.00;;;;;;4961621;28;20222;-80
2021/03/20 11:40:44;;;;;;;1999.90;999.90;;;8.30;1.00;;;;;;4979248;28;20159;-80
2021/03/20 11:43:59;;;;;;;1999.90;999.90;;;8.40;1.00;;;;;;4962285;28;20666;-80
2021/03/20 11:46:40;;;;;;;1999.90;999.90;;;8.40;1.00;;;;;;4917947;28;20226;-80
2021/03/20 11:49:23;;;;;;;1999.90;999.90;;;8.60;1.00;;;;;;4979435;28;20148;-80
2021/03/20 11:51:52;;;;;;;1999.90;999.90;;;8.80;1.00;;;;;;4979757;28;20148;-80
2021/03/20 11:54:30;;;;;;;1999.90;999.90;;;8.60;1.00;;;;;;4979433;28;20343;-80
2021/03/20 11:57:15;;;;;;;1999.90;999.90;;;8.60;1.00;;;;;;4981127;28;20186;-80
2021/03/20 11:59:44;;;;;;;1999.90;999.90;;;8.70;1.00;;;;;;4981053;28;20183;-80
2021/03/20 12:02:25;;;;;;;1999.90;999.90;;;8.80;1.00;;;;;;4980287;28;20159;-80
2021/03/20 12:05:36;;;;;;;1999.90;999.90;;;8.70;1.00;;;;;;4979691;28;20571;-80
2021/03/20 12:08:26;;;;;;;1999.90;999.90;;;8.70;1.00;;;;;;4881908;29;20268;-80
2021/03/20 12:11:10;;;;;;;1999.90;999.90;;;8.80;1.00;;;;;;4978876;28;20239;-80
2021/03/20 12:13:50;;;;;;;1999.90;999.90;;;8.60;1.00;;;;;;4978532;28;20190;-80
2021/03/20 12:16:37;;;;;;;1999.90;999.90;;;8.60;1.00;;;;;;4961315;28;20221;-80
2021/03/20 12:19:16;;;;;;;1999.90;999.90;;;8.60;1.00;;;;;;4980180;28;20202;-80
2021/03/20 12:22:00;;;;;;;1999.90;999.90;;;8.80;1.00;;;;;;4978331;28;20170;-80
2021/03/20 12:24:37;;;;;;;1999.90;999.90;;;8.70;1.00;;;;;;4961363;28;20179;-80
2021/03/20 12:27:23;;;;;;;1999.90;999.90;;;8.80;1.00;;;;;;4979369;28;20162;-80
2021/03/20 12:29:55;;;;;;;1999.90;999.90;;;8.90;1.00;;;;;;4979262;28;20239;-80
2021/03/20 12:32:32;;;;;;;1999.90;999.90;;;9.00;1.00;;;;;;4979430;28;20159;-80
2021/03/20 12:35:19;;;;;;;1999.90;999.90;;;9.10;1.00;;;;;;4978583;28;20187;-80
2021/03/20 12:38:11;;;;;;;1999.90;999.90;;;9.10;1.00;;;;;;4978214;28;20183;-80
2021/03/20 12:41:03;;;;;;;1999.90;999.90;;;9.00;1.00;;;;;;4979003;28;20170;-80
2021/03/20 12:43:35;;;;;;;1999.90;999.90;;;9.00;1.00;;;;;;4967889;28;20199;-80
2021/03/20 12:46:13;;;;;;;1999.90;999.90;;;9.00;1.00;;;;;;4959985;28;20230;-80
2021/03/20 12:48:45;;;;;;;1999.90;999.90;;;9.10;1.00;;;;;;4961171;28;20171;-80
2021/03/20 12:51:39;;;;;;;1999.90;999.90;;;9.30;1.00;;;;;;4961991;28;20198;-80
2021/03/20 12:54:04;;;;;;;1999.90;999.90;;;9.30;1.00;;;;;;4978101;28;20195;-80
2021/03/20 12:56:30;;;;;;;1999.90;999.90;;;9.30;1.00;;;;;;4978046;28;20164;-80
2021/03/20 12:58:56;;;;;;;1999.90;999.90;;;9.20;1.00;;;;;;4978505;28;20167;-80
2021/03/20 13:01:21;;;;;;;1999.90;999.90;;;9.30;1.00;;;;;;4978516;28;20223;-80